YGOM weather

Goomalling Airport
Western Australia, Australia

Public forecast

Using degrees Celsius for public forecast. Weather courtesy of forecast.io.

Closest aviation weather report (METAR) to Goomalling Airport

Closest report is RAAF Base Pearce, 48.0 nm (88.8 km) WSW. Retrieved 2019/10/22 14:30 UTC (23 minutes ago):

YPEA 221430Z 21007KT 9999 BKN023 18/14 Q1018 NOSIG RMK USE TAF FOR ARRIVALS FROM 1530Z

Closest aviation forecast (TAF) to Goomalling Airport

Forecast is more than 12 hours old.

Closest forecast is RAAF Base Pearce, 48.0 nm (88.8 km) WSW. Retrieved 2019-10-22 00:00 UTC (15 hours ago):

TAF YPEA 212218Z 2200/2218 18005KT CAVOK FM220500 24014KT CAVOK FM221100 23008KT 9999 SCT015